Time;durP1;ratioP1;P1;durP2;ratioP2;P2;SDS_P1;SDS_P2;PMS_P1;PMS_P2;Temp;Humidity;BMP_temperature;BMP_pressure;BME280_temperature;BME280_humidity;BME280_pressure;Samples;Min_cycle;Max_cycle;Signal;HPM_P1;HPM_P2
2023/07/04 00:00:55;;;;;;;7.15;1.15;;;13.40;99.90;;;;;;5024682;28;20053;-81
2023/07/04 00:03:21;;;;;;;7.75;1.70;;;13.40;99.90;;;;;;5027539;28;20175;-81
2023/07/04 00:05:48;;;;;;;7.97;1.75;;;13.40;99.90;;;;;;5022495;28;20496;-81
2023/07/04 00:08:13;;;;;;;4.72;0.90;;;13.30;99.90;;;;;;5023617;28;20123;-81
2023/07/04 00:10:39;;;;;;;5.78;1.40;;;13.20;99.90;;;;;;5027370;28;20041;-80
2023/07/04 00:13:05;;;;;;;5.22;0.85;;;13.20;99.90;;;;;;5026134;28;20053;-81
2023/07/04 00:15:30;;;;;;;6.05;1.20;;;13.10;99.90;;;;;;5029121;28;20116;-81
2023/07/04 00:17:56;;;;;;;5.38;0.77;;;13.10;99.90;;;;;;5029457;28;20041;-81
2023/07/04 00:20:21;;;;;;;8.13;0.88;;;13.10;99.90;;;;;;5027532;28;20042;-81
2023/07/04 00:22:47;;;;;;;8.85;1.00;;;13.00;99.90;;;;;;5025242;28;20045;-81
2023/07/04 00:25:12;;;;;;;8.13;1.30;;;12.90;99.90;;;;;;5030332;28;20041;-81
2023/07/04 00:27:40;;;;;;;5.80;1.00;;;12.80;99.90;;;;;;5029153;28;20488;-81
2023/07/04 00:30:08;;;;;;;5.78;1.10;;;12.70;99.90;;;;;;5029054;28;20041;-81
2023/07/04 00:32:33;;;;;;;6.20;0.88;;;12.70;99.90;;;;;;5028779;28;20041;-81
2023/07/04 00:35:00;;;;;;;4.25;0.77;;;12.60;99.90;;;;;;5028162;28;20045;-81
2023/07/04 00:37:28;;;;;;;6.10;1.08;;;12.60;99.90;;;;;;5023241;28;20049;-81
2023/07/04 00:39:54;;;;;;;4.40;1.42;;;12.50;99.90;;;;;;5027567;28;20124;-81
2023/07/04 00:42:21;;;;;;;4.75;1.33;;;12.40;99.90;;;;;;5024014;28;20654;-81
2023/07/04 00:44:54;;;;;;;9.48;1.25;;;12.40;99.90;;;;;;5024123;28;20603;-81
2023/07/04 00:47:22;;;;;;;6.75;0.98;;;12.40;99.90;;;;;;5026341;28;20053;-81
2023/07/04 00:49:51;;;;;;;6.43;1.60;;;12.30;99.90;;;;;;5024486;28;20056;-81
2023/07/04 00:52:27;;;;;;;6.30;0.88;;;12.30;99.90;;;;;;5027369;28;20030;-81
2023/07/04 00:54:57;;;;;;;5.25;0.75;;;12.20;99.90;;;;;;5023354;28;20050;-81
2023/07/04 00:57:25;;;;;;;4.60;0.65;;;12.20;99.90;;;;;;5023029;28;20052;-80
2023/07/04 00:59:57;;;;;;;4.68;0.88;;;12.20;99.90;;;;;;5028919;28;20136;-81
2023/07/04 01:02:27;;;;;;;4.82;0.65;;;12.20;99.90;;;;;;5024812;28;20538;-81
2023/07/04 01:04:53;;;;;;;3.13;0.70;;;12.20;99.90;;;;;;5026045;28;20056;-81
2023/07/04 01:07:35;;;;;;;4.85;1.13;;;12.10;99.90;;;;;;5028163;28;20354;-81
2023/07/04 01:10:15;;;;;;;4.72;0.70;;;12.10;99.90;;;;;;5019012;28;20128;-81
2023/07/04 01:12:40;;;;;;;7.18;1.10;;;12.10;99.90;;;;;;5022859;28;20033;-81
2023/07/04 01:15:08;;;;;;;3.65;1.33;;;12.10;99.90;;;;;;5026880;28;20531;-80
2023/07/04 01:17:35;;;;;;;5.93;1.60;;;12.10;99.90;;;;;;5041148;28;20049;-81
2023/07/04 01:20:04;;;;;;;8.27;2.35;;;12.10;99.90;;;;;;5026667;28;20514;-81
2023/07/04 01:22:35;;;;;;;7.95;1.92;;;12.30;99.90;;;;;;5029687;28;20454;-81
2023/07/04 01:25:43;;;;;;;13.85;2.85;;;12.40;99.90;;;;;;5022674;28;20053;-81
2023/07/04 01:28:09;;;;;;;13.23;2.20;;;12.50;99.90;;;;;;5025513;28;20583;-81
2023/07/04 01:30:38;;;;;;;11.98;3.30;;;12.60;99.90;;;;;;5023923;28;20033;-81
2023/07/04 01:33:05;;;;;;;14.50;3.97;;;12.70;99.90;;;;;;5022467;28;20607;-81
2023/07/04 01:35:33;;;;;;;8.23;2.35;;;12.80;99.90;;;;;;5026202;28;20037;-81
2023/07/04 01:37:59;;;;;;;10.23;2.80;;;12.90;99.90;;;;;;5023731;28;20068;-81
2023/07/04 01:40:25;;;;;;;10.05;2.88;;;12.80;99.90;;;;;;5022918;28;20124;-81
2023/07/04 01:42:51;;;;;;;12.43;3.25;;;12.90;99.90;;;;;;5023589;28;20034;-81
2023/07/04 01:45:17;;;;;;;13.27;3.10;;;12.90;99.90;;;;;;5025921;28;20041;-80
2023/07/04 01:47:43;;;;;;;15.73;4.68;;;13.00;99.90;;;;;;5025816;28;20049;-81
2023/07/04 01:50:11;;;;;;;15.43;3.78;;;13.10;99.90;;;;;;5006198;28;20511;-80
2023/07/04 01:52:39;;;;;;;10.40;3.33;;;13.20;99.90;;;;;;5021309;28;20041;-79
2023/07/04 01:55:06;;;;;;;13.80;3.70;;;13.20;99.90;;;;;;5021192;28;20080;-80
2023/07/04 01:57:31;;;;;;;19.30;4.20;;;13.30;99.90;;;;;;5024114;28;20038;-80
2023/07/04 01:59:57;;;;;;;12.60;2.92;;;13.30;99.90;;;;;;5025226;28;20042;-80
2023/07/04 02:02:23;;;;;;;18.13;3.95;;;13.30;99.90;;;;;;5024837;28;20095;-81
2023/07/04 02:04:48;;;;;;;14.80;3.55;;;13.40;99.90;;;;;;5022258;28;20083;-80
2023/07/04 02:07:14;;;;;;;14.40;4.15;;;13.40;99.90;;;;;;5021100;28;20049;-81
2023/07/04 02:09:39;;;;;;;9.40;3.95;;;13.40;99.90;;;;;;5021398;28;20034;-80
2023/07/04 02:12:05;;;;;;;9.98;3.28;;;13.40;99.90;;;;;;5024447;28;20041;-81
2023/07/04 02:14:31;;;;;;;14.73;4.03;;;13.40;99.90;;;;;;5022466;28;20056;-81
2023/07/04 02:16:56;;;;;;;11.50;3.10;;;13.40;99.90;;;;;;5023481;28;20091;-80
2023/07/04 02:19:22;;;;;;;14.70;4.35;;;13.40;99.90;;;;;;5022837;28;20057;-80
2023/07/04 02:21:47;;;;;;;12.90;3.47;;;13.40;99.90;;;;;;5023180;28;20040;-80
2023/07/04 02:24:13;;;;;;;12.63;3.35;;;13.40;99.90;;;;;;5023535;28;20042;-80
2023/07/04 02:26:39;;;;;;;14.15;3.25;;;13.30;99.90;;;;;;5023451;28;20071;-81
2023/07/04 02:29:05;;;;;;;15.18;3.70;;;13.30;99.90;;;;;;5022284;28;20045;-80
2023/07/04 02:31:30;;;;;;;12.02;3.70;;;13.30;99.90;;;;;;5022916;28;20503;-80
2023/07/04 02:33:56;;;;;;;8.32;3.17;;;13.30;99.90;;;;;;5019644;28;20045;-81
2023/07/04 02:36:22;;;;;;;8.93;3.10;;;13.40;99.90;;;;;;5019002;28;20037;-80
2023/07/04 02:38:47;;;;;;;13.88;4.00;;;13.30;99.90;;;;;;5020791;28;20112;-81
2023/07/04 02:41:13;;;;;;;8.13;2.75;;;13.30;99.90;;;;;;5023233;28;20118;-80
2023/07/04 02:43:39;;;;;;;9.95;2.40;;;13.30;99.90;;;;;;5019714;28;20144;-80
2023/07/04 02:46:06;;;;;;;11.77;3.20;;;13.30;99.90;;;;;;5023354;28;20037;-80
2023/07/04 02:48:32;;;;;;;8.35;2.22;;;13.30;99.90;;;;;;5025175;28;20056;-80
2023/07/04 02:50:58;;;;;;;17.35;3.50;;;13.20;99.90;;;;;;5020698;28;20042;-80
2023/07/04 02:53:24;;;;;;;8.50;2.88;;;13.20;99.90;;;;;;5023517;28;20063;-81
2023/07/04 02:55:52;;;;;;;5.13;2.08;;;13.20;99.90;;;;;;5020968;28;20033;-80
2023/07/04 02:58:18;;;;;;;8.90;2.15;;;13.20;99.90;;;;;;5026480;28;21035;-80
2023/07/04 03:00:46;;;;;;;9.85;2.28;;;13.20;99.90;;;;;;5022979;28;20073;-81
2023/07/04 03:03:11;;;;;;;6.90;1.98;;;13.30;99.90;;;;;;5021777;28;20034;-80
2023/07/04 03:05:37;;;;;;;7.75;2.03;;;13.20;99.90;;;;;;5024063;28;20099;-80
2023/07/04 03:08:03;;;;;;;8.75;2.03;;;13.20;99.90;;;;;;5022114;28;20051;-80
2023/07/04 03:10:30;;;;;;;10.85;2.65;;;13.20;99.90;;;;;;5024874;28;20199;-80
2023/07/04 03:12:56;;;;;;;11.85;2.95;;;13.30;99.90;;;;;;5029043;28;21448;-80
2023/07/04 03:15:22;;;;;;;10.32;2.38;;;13.30;99.90;;;;;;5028445;28;20127;-81
2023/07/04 03:17:48;;;;;;;8.35;2.17;;;13.30;99.90;;;;;;5025550;28;20069;-80
2023/07/04 03:20:14;;;;;;;7.63;2.35;;;13.30;99.90;;;;;;5028929;28;20086;-80
2023/07/04 03:22:40;;;;;;;11.00;2.30;;;13.30;99.90;;;;;;5024038;28;20107;-80
2023/07/04 03:25:06;;;;;;;15.02;3.38;;;13.40;99.90;;;;;;5025710;28;20104;-81
2023/07/04 03:27:35;;;;;;;10.70;3.28;;;13.40;99.90;;;;;;5027993;28;20075;-80
2023/07/04 03:30:01;;;;;;;14.10;2.55;;;13.40;99.90;;;;;;5028359;28;20053;-80
2023/07/04 03:32:27;;;;;;;8.93;2.20;;;13.40;99.90;;;;;;5026940;28;20041;-80
2023/07/04 03:34:52;;;;;;;11.63;2.78;;;13.40;99.90;;;;;;5025710;28;20966;-80
2023/07/04 03:37:18;;;;;;;9.60;2.35;;;13.40;99.90;;;;;;5028941;28;20080;-80
2023/07/04 03:39:43;;;;;;;8.00;2.92;;;13.40;99.90;;;;;;5025823;28;20042;-80
2023/07/04 03:42:09;;;;;;;12.50;2.78;;;13.40;99.90;;;;;;5025401;28;20464;-81
2023/07/04 03:44:34;;;;;;;5.63;2.25;;;13.40;99.90;;;;;;5023897;28;20045;-80
2023/07/04 03:47:00;;;;;;;10.45;3.28;;;13.40;99.90;;;;;;5026284;28;20045;-80
2023/07/04 03:49:26;;;;;;;7.78;2.22;;;13.50;99.90;;;;;;5027503;28;20140;-80
2023/07/04 03:51:52;;;;;;;10.30;3.00;;;13.40;99.90;;;;;;5027269;28;20057;-80
2023/07/04 03:54:18;;;;;;;9.02;3.17;;;13.40;99.90;;;;;;5027654;28;20030;-80
2023/07/04 03:56:43;;;;;;;8.48;2.10;;;13.40;99.90;;;;;;5026184;28;20054;-80
2023/07/04 03:59:09;;;;;;;9.60;2.60;;;13.40;99.90;;;;;;5024826;28;20094;-81
2023/07/04 04:01:34;;;;;;;9.25;2.78;;;13.40;99.90;;;;;;5024124;28;20048;-80
2023/07/04 04:04:00;;;;;;;14.30;4.28;;;13.40;99.90;;;;;;5012607;28;20077;-80
2023/07/04 04:06:25;;;;;;;13.25;2.90;;;13.40;99.90;;;;;;5026855;28;20522;-80
2023/07/04 04:08:51;;;;;;;7.50;2.20;;;13.40;99.90;;;;;;5026428;28;20384;-80
2023/07/04 04:11:16;;;;;;;9.52;2.85;;;13.40;99.90;;;;;;5026818;28;20037;-80
2023/07/04 04:13:42;;;;;;;11.18;3.03;;;13.40;99.90;;;;;;5024207;28;20124;-81
2023/07/04 04:16:08;;;;;;;10.13;3.67;;;13.40;99.90;;;;;;5018352;28;20132;-80
2023/07/04 04:18:33;;;;;;;11.55;3.08;;;13.40;99.90;;;;;;5023191;28;20056;-81
2023/07/04 04:20:59;;;;;;;10.18;3.67;;;13.40;99.90;;;;;;5024141;28;20044;-81
2023/07/04 04:23:24;;;;;;;10.77;3.13;;;13.40;99.90;;;;;;5024345;28;20116;-81
2023/07/04 04:25:50;;;;;;;9.88;2.67;;;13.50;99.90;;;;;;5026792;28;20065;-80
2023/07/04 04:28:15;;;;;;;10.48;3.53;;;13.50;99.90;;;;;;5022060;28;20127;-81
2023/07/04 04:30:42;;;;;;;12.20;3.85;;;13.60;99.90;;;;;;5024899;28;20037;-80
2023/07/04 04:33:09;;;;;;;12.13;3.45;;;13.70;99.90;;;;;;5024606;28;20724;-81
2023/07/04 04:35:39;;;;;;;11.20;3.50;;;14.10;99.90;;;;;;5024496;28;20090;-81
2023/07/04 04:38:06;;;;;;;10.02;2.75;;;14.30;99.90;;;;;;5024650;28;20034;-80
2023/07/04 04:40:33;;;;;;;7.20;2.35;;;14.30;99.90;;;;;;5025052;28;20079;-80
2023/07/04 04:42:58;;;;;;;10.90;2.72;;;14.20;99.90;;;;;;5024982;28;20073;-78
2023/07/04 04:45:24;;;;;;;11.02;2.83;;;14.30;99.90;;;;;;5022924;28;20452;-79
2023/07/04 04:47:53;;;;;;;7.82;2.17;;;14.20;99.90;;;;;;5023079;28;20037;-80
2023/07/04 04:50:37;;;;;;;11.35;2.75;;;14.10;99.90;;;;;;5022403;28;20040;-80
2023/07/04 04:53:02;;;;;;;8.65;1.90;;;14.10;99.90;;;;;;5024156;28;20038;-81
2023/07/04 04:55:28;;;;;;;9.82;2.40;;;14.10;99.90;;;;;;5033357;28;20840;-81
2023/07/04 04:57:54;;;;;;;9.55;2.55;;;14.00;99.90;;;;;;5026219;28;20037;-81
2023/07/04 05:00:20;;;;;;;13.43;2.50;;;14.00;99.90;;;;;;5025027;28;20595;-81
2023/07/04 05:02:46;;;;;;;11.15;2.22;;;14.10;99.90;;;;;;5029065;28;20125;-81
2023/07/04 05:05:12;;;;;;;10.13;2.22;;;14.00;99.90;;;;;;5029005;28;20117;-81
2023/07/04 05:07:38;;;;;;;5.60;1.60;;;14.10;99.90;;;;;;5028419;28;20088;-80
2023/07/04 05:10:04;;;;;;;7.03;1.73;;;14.10;99.90;;;;;;5023934;28;20038;-80
2023/07/04 05:12:31;;;;;;;6.78;1.67;;;14.10;99.90;;;;;;5025570;28;20511;-80
2023/07/04 05:14:57;;;;;;;9.48;1.80;;;14.10;99.90;;;;;;5028471;28;20042;-80
2023/07/04 05:17:23;;;;;;;7.30;1.17;;;14.10;99.90;;;;;;5027653;28;20042;-82
2023/07/04 05:19:50;;;;;;;9.63;1.63;;;14.10;99.90;;;;;;5032770;28;20033;-81
2023/07/04 05:22:16;;;;;;;10.60;1.98;;;14.20;99.90;;;;;;5029928;28;20046;-82
2023/07/04 05:24:42;;;;;;;7.93;1.20;;;14.10;99.90;;;;;;5029091;28;20047;-81
2023/07/04 05:27:07;;;;;;;8.65;1.50;;;14.80;99.90;;;;;;5027867;28;20121;-82
2023/07/04 05:29:33;;;;;;;6.47;1.80;;;14.20;99.90;;;;;;5031813;28;20052;-81
2023/07/04 05:31:58;;;;;;;5.95;1.42;;;14.30;99.90;;;;;;5024760;28;20751;-81
2023/07/04 05:34:24;;;;;;;6.35;1.20;;;14.30;99.90;;;;;;5034184;28;20056;-81
2023/07/04 05:36:49;;;;;;;5.30;1.25;;;14.30;99.90;;;;;;5037226;28;20108;-80
2023/07/04 05:39:15;;;;;;;6.95;1.55;;;14.30;99.90;;;;;;5028739;28;20030;-81
2023/07/04 05:41:41;;;;;;;4.30;1.05;;;14.30;99.90;;;;;;5031305;28;20091;-81
2023/07/04 05:44:08;;;;;;;4.13;0.93;;;14.40;99.90;;;;;;5031715;28;20084;-81
2023/07/04 05:46:35;;;;;;;5.53;1.02;;;14.40;99.90;;;;;;5028958;28;20085;-80
2023/07/04 05:49:01;;;;;;;4.45;0.80;;;14.50;99.90;;;;;;5034002;28;20041;-81
2023/07/04 05:51:28;;;;;;;5.32;1.13;;;14.50;99.90;;;;;;5032131;28;20060;-81
2023/07/04 05:53:54;;;;;;;6.85;1.55;;;14.60;99.90;;;;;;5031971;28;20052;-82
2023/07/04 05:56:21;;;;;;;3.95;1.02;;;14.60;99.90;;;;;;5033790;28;20399;-82
2023/07/04 05:58:51;;;;;;;4.25;0.70;;;14.60;99.90;;;;;;5027372;28;20079;-80
2023/07/04 06:01:27;;;;;;;4.50;0.70;;;14.70;99.90;;;;;;5028561;28;20045;-80
2023/07/04 06:03:54;;;;;;;3.55;0.55;;;14.70;99.90;;;;;;5024232;28;20042;-80
2023/07/04 06:06:27;;;;;;;8.73;1.30;;;14.90;99.90;;;;;;5032873;28;20042;-81
2023/07/04 06:08:55;;;;;;;5.32;0.90;;;15.00;99.90;;;;;;5032673;28;20041;-81
2023/07/04 06:11:22;;;;;;;4.57;0.95;;;15.10;99.90;;;;;;5036128;28;20116;-81
2023/07/04 06:13:48;;;;;;;5.28;1.10;;;15.30;99.90;;;;;;5030535;28;20131;-80
2023/07/04 06:16:13;;;;;;;6.30;1.23;;;15.40;99.90;;;;;;5034569;28;20042;-80
2023/07/04 06:18:39;;;;;;;5.80;1.00;;;15.50;99.90;;;;;;5029810;28;20045;-78
2023/07/04 06:21:22;;;;;;;3.88;0.70;;;15.10;99.90;;;;;;5026775;28;20060;-79
2023/07/04 06:23:49;;;;;;;5.28;1.00;;;15.60;99.90;;;;;;5023802;28;20048;-79
2023/07/04 06:26:15;;;;;;;11.00;1.10;;;15.60;99.90;;;;;;5025888;28;20048;-79
2023/07/04 06:28:41;;;;;;;4.32;1.05;;;15.60;99.90;;;;;;5033386;28;20064;-79
2023/07/04 06:31:13;;;;;;;3.40;1.13;;;15.70;99.90;;;;;;5028334;28;20658;-79
2023/07/04 06:33:39;;;;;;;3.28;0.70;;;15.80;99.90;;;;;;5028585;28;20102;-79
2023/07/04 06:36:11;;;;;;;4.68;1.35;;;15.80;99.90;;;;;;5026702;28;20153;-79
2023/07/04 06:38:37;;;;;;;2.67;0.68;;;15.80;99.90;;;;;;5026698;28;20037;-79
2023/07/04 06:41:08;;;;;;;5.22;1.00;;;15.80;99.90;;;;;;5027403;28;20030;-78
2023/07/04 06:43:34;;;;;;;3.88;0.82;;;15.90;99.90;;;;;;5028378;28;20049;-78
2023/07/04 06:46:00;;;;;;;5.97;1.40;;;15.90;99.90;;;;;;5026583;28;20136;-79
2023/07/04 06:48:28;;;;;;;5.10;0.90;;;15.90;99.90;;;;;;5029082;28;20033;-79
2023/07/04 06:51:09;;;;;;;3.60;0.57;;;16.00;99.90;;;;;;5025294;28;20048;-78
2023/07/04 06:53:36;;;;;;;6.85;1.35;;;16.00;99.90;;;;;;5023295;28;20052;-78
2023/07/04 06:56:13;;;;;;;4.75;0.80;;;16.00;99.90;;;;;;5028422;28;20038;-80
2023/07/04 06:58:41;;;;;;;4.43;0.98;;;16.10;99.90;;;;;;5027743;28;20057;-79
2023/07/04 07:01:07;;;;;;;6.55;0.85;;;16.20;99.90;;;;;;5026172;28;21656;-79
2023/07/04 07:03:33;;;;;;;3.83;1.05;;;16.20;99.90;;;;;;5023800;28;21625;-79
2023/07/04 07:06:03;;;;;;;6.68;1.20;;;16.30;99.90;;;;;;5028664;28;20041;-78
2023/07/04 07:08:28;;;;;;;4.93;1.10;;;16.60;99.90;;;;;;5031322;28;20041;-79
2023/07/04 07:11:00;;;;;;;10.30;1.67;;;16.30;99.90;;;;;;5027043;28;20034;-79
2023/07/04 07:13:26;;;;;;;5.03;1.13;;;16.40;99.90;;;;;;5034306;28;20439;-80
2023/07/04 07:15:53;;;;;;;3.70;1.17;;;16.40;99.90;;;;;;5031654;28;20029;-79
2023/07/04 07:18:18;;;;;;;7.93;0.88;;;16.50;99.90;;;;;;5029685;28;20068;-79
2023/07/04 07:20:44;;;;;;;5.43;0.73;;;16.50;99.90;;;;;;5028377;28;20056;-79
2023/07/04 07:23:10;;;;;;;3.28;0.70;;;16.50;99.90;;;;;;5026905;28;20080;-80
2023/07/04 07:25:36;;;;;;;6.10;1.00;;;16.60;99.90;;;;;;5029780;28;20124;-79
2023/07/04 07:28:03;;;;;;;5.63;0.80;;;16.50;99.90;;;;;;5024440;28;20072;-78
2023/07/04 07:30:28;;;;;;;4.97;1.20;;;16.50;99.90;;;;;;5028720;28;20046;-79
2023/07/04 07:32:54;;;;;;;10.73;1.58;;;16.50;99.90;;;;;;5028967;28;20053;-79
2023/07/04 07:35:19;;;;;;;6.40;1.00;;;16.50;99.90;;;;;;5030643;28;20053;-79
2023/07/04 07:37:45;;;;;;;3.90;0.73;;;16.60;99.90;;;;;;5029666;28;20041;-79
2023/07/04 07:40:12;;;;;;;3.85;1.50;;;16.60;99.90;;;;;;5024851;28;20030;-79
2023/07/04 07:42:37;;;;;;;4.05;0.85;;;16.70;99.90;;;;;;5030097;28;20083;-78
2023/07/04 07:45:03;;;;;;;8.95;1.02;;;16.80;99.90;;;;;;5027209;28;20046;-80
2023/07/04 07:47:29;;;;;;;3.17;0.88;;;16.90;99.90;;;;;;5028633;28;20056;-79
2023/07/04 07:49:55;;;;;;;6.43;1.33;;;17.00;99.90;;;;;;5027904;28;20069;-79
2023/07/04 07:52:21;;;;;;;6.50;1.40;;;17.20;99.90;;;;;;5012303;28;20049;-79
2023/07/04 07:54:47;;;;;;;3.05;0.70;;;17.50;99.90;;;;;;5030115;28;20456;-79
2023/07/04 07:57:13;;;;;;;14.02;1.50;;;17.70;99.90;;;;;;5035407;28;20025;-79
2023/07/04 07:59:38;;;;;;;9.65;1.30;;;17.90;99.90;;;;;;5027206;28;20084;-79
2023/07/04 08:02:04;;;;;;;8.77;1.23;;;17.90;99.90;;;;;;5032253;28;20064;-79
2023/07/04 08:04:30;;;;;;;4.30;1.88;;;17.90;99.90;;;;;;5018949;28;20038;-79
2023/07/04 08:06:55;;;;;;;5.22;1.60;;;18.10;99.90;;;;;;5015419;28;21723;-80
2023/07/04 08:09:21;;;;;;;8.43;1.33;;;17.90;99.90;;;;;;5030806;28;20041;-80
2023/07/04 08:11:48;;;;;;;7.43;1.70;;;17.90;99.90;;;;;;5032730;28;20111;-79
2023/07/04 08:14:14;;;;;;;6.90;1.10;;;17.90;99.90;;;;;;5033127;28;20073;-80
2023/07/04 08:16:46;;;;;;;6.88;1.42;;;17.80;99.90;;;;;;5033220;28;20044;-80
2023/07/04 08:19:13;;;;;;;4.85;1.27;;;17.80;99.90;;;;;;5034952;28;20045;-79
2023/07/04 08:21:39;;;;;;;8.35;1.00;;;17.70;99.90;;;;;;5033007;28;20052;-79
2023/07/04 08:24:10;;;;;;;5.88;1.67;;;17.70;99.90;;;;;;5016411;28;20413;-79
2023/07/04 08:26:36;;;;;;;8.30;1.25;;;17.70;99.90;;;;;;5030966;28;20073;-79
2023/07/04 08:29:02;;;;;;;6.68;1.73;;;17.70;99.90;;;;;;5031557;28;20050;-79
2023/07/04 08:31:28;;;;;;;6.10;1.20;;;17.70;99.90;;;;;;5034590;28;20051;-80
2023/07/04 08:33:54;;;;;;;5.65;0.95;;;17.60;99.90;;;;;;5032088;28;20113;-79
2023/07/04 08:36:20;;;;;;;10.18;1.92;;;17.60;99.90;;;;;;5032100;28;20121;-80
2023/07/04 08:38:47;;;;;;;8.20;1.30;;;17.60;99.90;;;;;;5032956;28;20045;-79
2023/07/04 08:41:45;;;;;;;8.77;2.35;;;17.70;99.90;;;;;;5037065;28;20033;-79
2023/07/04 08:44:18;;;;;;;5.30;1.30;;;17.60;99.90;;;;;;5030161;28;20049;-79
2023/07/04 08:46:47;;;;;;;8.60;1.88;;;17.70;99.90;;;;;;5031198;28;20045;-79
2023/07/04 08:49:29;;;;;;;7.78;1.45;;;17.70;99.90;;;;;;5030428;28;20033;-80
2023/07/04 08:52:03;;;;;;;8.02;1.92;;;17.80;99.90;;;;;;5027666;28;20041;-80
2023/07/04 08:54:29;;;;;;;5.55;2.22;;;17.70;99.90;;;;;;5030456;28;20037;-80
2023/07/04 08:57:03;;;;;;;7.60;1.17;;;17.80;99.90;;;;;;5032044;28;20045;-80
2023/07/04 08:59:44;;;;;;;6.70;1.65;;;17.80;99.90;;;;;;5029864;28;20050;-80
2023/07/04 09:02:41;;;;;;;4.65;1.13;;;17.80;99.90;;;;;;5028868;28;20053;-79
2023/07/04 09:05:38;;;;;;;7.82;1.25;;;17.80;99.90;;;;;;5027812;28;20068;-80
2023/07/04 09:08:29;;;;;;;6.53;1.40;;;17.80;99.90;;;;;;5032700;28;20049;-79
2023/07/04 09:11:01;;;;;;;8.30;1.90;;;17.80;99.90;;;;;;5030040;28;20045;-79
2023/07/04 09:13:32;;;;;;;9.88;1.15;;;17.80;99.90;;;;;;5029591;28;20077;-81
2023/07/04 09:16:02;;;;;;;13.00;2.22;;;17.90;99.90;;;;;;5033121;28;20056;-80
2023/07/04 09:18:52;;;;;;;6.82;1.50;;;18.00;99.90;;;;;;5029971;28;20048;-80
2023/07/04 09:21:20;;;;;;;11.07;2.10;;;18.00;99.90;;;;;;5027828;28;20109;-80
2023/07/04 09:23:48;;;;;;;8.38;1.80;;;18.10;99.90;;;;;;5028599;28;20041;-79
2023/07/04 09:26:17;;;;;;;9.23;2.20;;;18.10;99.90;;;;;;5027333;28;20511;-80
2023/07/04 09:28:44;;;;;;;13.43;2.25;;;18.30;99.90;;;;;;5028882;28;20119;-80
2023/07/04 09:31:19;;;;;;;7.20;2.05;;;18.70;99.90;;;;;;5028039;28;20041;-80
2023/07/04 09:33:52;;;;;;;10.98;1.63;;;19.00;99.90;;;;;;5028783;28;20034;-80
2023/07/04 09:36:19;;;;;;;8.43;2.28;;;19.30;99.90;;;;;;5028926;28;20492;-79
2023/07/04 09:38:58;;;;;;;9.55;1.80;;;19.40;99.90;;;;;;5028514;28;20042;-80
2023/07/04 09:41:26;;;;;;;10.55;2.22;;;19.60;99.90;;;;;;5025366;28;20117;-79
2023/07/04 09:43:53;;;;;;;6.35;1.70;;;19.80;99.90;;;;;;5024949;28;20051;-80
2023/07/04 09:46:24;;;;;;;8.45;1.65;;;20.10;99.90;;;;;;5028609;28;20518;-80
2023/07/04 09:48:50;;;;;;;8.45;2.38;;;20.30;99.90;;;;;;5030215;28;20071;-80
2023/07/04 09:51:28;;;;;;;6.35;1.60;;;20.60;99.90;;;;;;5025855;28;20046;-80
2023/07/04 09:54:16;;;;;;;8.65;2.30;;;20.80;99.90;;;;;;5026756;28;20145;-80
2023/07/04 09:56:42;;;;;;;9.70;1.92;;;20.70;99.90;;;;;;5028384;28;20044;-79
2023/07/04 09:59:18;;;;;;;7.72;1.67;;;20.70;99.90;;;;;;5028846;28;20119;-80
2023/07/04 10:01:47;;;;;;;5.35;1.83;;;20.60;99.90;;;;;;5027611;28;20045;-79
2023/07/04 10:04:22;;;;;;;7.40;1.98;;;20.50;99.90;;;;;;5016517;28;20041;-80
2023/07/04 10:06:50;;;;;;;;;;;20.60;99.90;;;;;;5027820;28;20033;-80
2023/07/04 10:09:20;;;;;;;14.43;2.45;;;20.40;99.90;;;;;;5024241;28;20048;-80
2023/07/04 10:11:50;;;;;;;7.63;2.33;;;20.20;99.90;;;;;;5026224;28;20400;-80
2023/07/04 10:14:33;;;;;;;10.25;1.95;;;19.90;99.90;;;;;;5023941;28;20061;-79
2023/07/04 10:17:17;;;;;;;9.77;1.88;;;20.00;99.90;;;;;;5002291;28;20123;-79
2023/07/04 10:19:49;;;;;;;7.65;1.55;;;20.30;99.90;;;;;;5029659;28;20071;-81
2023/07/04 10:22:26;;;;;;;8.02;1.85;;;20.40;99.90;;;;;;5028792;28;20041;-80
2023/07/04 10:24:51;;;;;;;6.25;1.33;;;20.30;99.90;;;;;;5027878;28;20045;-80
2023/07/04 10:27:20;;;;;;;20.60;2.28;;;20.20;99.90;;;;;;5026711;28;20055;-80
2023/07/04 10:29:54;;;;;;;10.93;2.17;;;20.50;99.90;;;;;;5029893;28;20045;-80
2023/07/04 10:32:21;;;;;;;5.45;1.33;;;20.80;99.90;;;;;;5026689;28;20515;-80
2023/07/04 10:34:48;;;;;;;9.70;2.47;;;21.10;99.90;;;;;;5023915;28;20041;-80
2023/07/04 10:37:23;;;;;;;7.88;1.90;;;21.30;99.90;;;;;;5024734;28;20385;-81
2023/07/04 10:39:54;;;;;;;9.80;1.77;;;21.20;99.90;;;;;;5025403;28;20049;-80
2023/07/04 10:42:54;;;;;;;8.02;1.45;;;21.10;99.90;;;;;;5024262;28;20053;-79
2023/07/04 10:45:23;;;;;;;4.63;1.20;;;20.80;99.90;;;;;;5018425;28;20057;-80
2023/07/04 10:47:52;;;;;;;7.80;1.50;;;20.70;99.90;;;;;;5021242;28;20049;-80
2023/07/04 10:50:25;;;;;;;8.55;1.58;;;20.40;99.90;;;;;;5024160;28;20815;-80
2023/07/04 10:52:51;;;;;;;6.15;1.58;;;20.50;99.90;;;;;;5019618;28;20085;-80
2023/07/04 10:55:29;;;;;;;6.57;1.30;;;20.80;99.90;;;;;;5017151;28;20073;-80
2023/07/04 10:58:10;;;;;;;7.32;1.45;;;20.80;99.90;;;;;;5023639;28;20626;-80
2023/07/04 11:00:41;;;;;;;7.15;1.55;;;20.70;99.90;;;;;;5042760;28;20048;-80
2023/07/04 11:03:30;;;;;;;9.30;1.17;;;20.50;99.90;;;;;;5027160;28;20492;-80
2023/07/04 11:05:57;;;;;;;6.32;1.33;;;20.60;99.90;;;;;;5026248;28;20504;-80
2023/07/04 11:08:28;;;;;;;7.20;1.98;;;20.70;99.90;;;;;;5024747;28;20075;-80
2023/07/04 11:11:07;;;;;;;7.20;1.30;;;20.90;99.90;;;;;;5025968;28;20067;-80
2023/07/04 11:13:33;;;;;;;11.07;3.00;;;20.70;99.90;;;;;;5027827;28;20045;-80
2023/07/04 11:16:03;;;;;;;9.02;1.50;;;20.50;99.90;;;;;;5022600;28;20042;-80
2023/07/04 11:18:38;;;;;;;6.18;1.77;;;20.50;99.90;;;;;;5008294;28;20057;-80
2023/07/04 11:21:08;;;;;;;7.47;2.05;;;20.40;99.90;;;;;;5023876;28;20102;-79
2023/07/04 11:23:50;;;;;;;9.60;1.67;;;20.60;99.90;;;;;;5025193;28;20129;-79
2023/07/04 11:26:18;;;;;;;7.65;1.38;;;20.50;99.90;;;;;;5026256;28;20072;-80
2023/07/04 11:28:46;;;;;;;5.45;1.65;;;20.30;99.90;;;;;;5024239;28;20383;-80
2023/07/04 11:31:12;;;;;;;6.10;1.15;;;20.30;99.90;;;;;;5026520;28;20042;-80
2023/07/04 11:34:00;;;;;;;6.30;1.65;;;20.20;99.90;;;;;;5029443;28;20048;-80
2023/07/04 11:36:49;;;;;;;7.25;1.90;;;20.30;99.90;;;;;;5028824;28;20040;-80
2023/07/04 11:39:34;;;;;;;6.05;1.42;;;20.40;99.90;;;;;;5028215;28;20034;-80
2023/07/04 11:42:20;;;;;;;6.38;1.63;;;20.50;99.90;;;;;;5039356;28;20140;-80
2023/07/04 11:45:05;;;;;;;6.47;1.95;;;20.50;99.90;;;;;;5024254;28;20052;-80
2023/07/04 11:47:49;;;;;;;10.95;2.38;;;20.50;99.90;;;;;;5021926;28;20123;-80
2023/07/04 11:50:19;;;;;;;11.15;1.55;;;20.50;99.90;;;;;;5023547;28;20037;-79
2023/07/04 11:52:57;;;;;;;5.95;1.20;;;20.60;99.90;;;;;;5026540;28;20053;-79
2023/07/04 11:55:29;;;;;;;11.60;1.48;;;21.00;99.90;;;;;;5027421;28;20041;-79
2023/07/04 11:58:07;;;;;;;5.45;1.83;;;20.40;99.90;;;;;;5033161;28;20068;-79
2023/07/04 12:00:35;;;;;;;8.15;1.70;;;20.30;99.90;;;;;;5028112;28;20484;-81
2023/07/04 12:03:19;;;;;;;11.20;1.88;;;20.20;99.90;;;;;;5024462;28;20435;-80
2023/07/04 12:05:53;;;;;;;5.97;1.35;;;20.10;99.90;;;;;;5025470;28;20140;-80
2023/07/04 12:08:22;;;;;;;7.57;1.80;;;19.90;99.90;;;;;;5004310;28;20665;-79
2023/07/04 12:10:48;;;;;;;5.55;1.25;;;19.90;99.90;;;;;;5027077;28;20049;-80
2023/07/04 12:13:20;;;;;;;8.05;1.70;;;19.90;99.90;;;;;;5025423;28;20045;-79
2023/07/04 12:15:51;;;;;;;8.35;2.28;;;20.00;99.90;;;;;;5028388;28;20087;-79
2023/07/04 12:18:29;;;;;;;6.45;1.67;;;20.20;99.40;;;;;;5029650;28;20032;-79
2023/07/04 12:20:58;;;;;;;9.93;1.65;;;20.70;99.90;;;;;;5029089;28;20109;-79
2023/07/04 12:23:24;;;;;;;10.40;2.33;;;20.80;99.90;;;;;;5031752;28;20116;-80
2023/07/04 12:25:52;;;;;;;13.23;1.50;;;20.80;99.90;;;;;;5031134;28;20041;-80
2023/07/04 12:28:23;;;;;;;5.57;1.70;;;20.70;99.90;;;;;;5041960;28;20049;-80
2023/07/04 12:30:52;;;;;;;9.15;1.90;;;20.70;99.20;;;;;;5029050;28;20045;-80
2023/07/04 12:33:23;;;;;;;8.48;1.77;;;20.50;99.00;;;;;;5027951;28;20566;-81
2023/07/04 12:35:57;;;;;;;7.50;1.45;;;20.40;99.50;;;;;;5029261;28;20042;-79
2023/07/04 12:38:24;;;;;;;3.28;1.20;;;20.30;99.70;;;;;;5028414;28;20044;-80
2023/07/04 12:40:51;;;;;;;8.55;1.38;;;20.30;99.90;;;;;;5027828;28;20041;-80
2023/07/04 12:43:17;;;;;;;9.15;2.08;;;20.10;99.90;;;;;;5021651;28;20060;-80
2023/07/04 12:45:43;;;;;;;7.53;1.65;;;20.10;99.90;;;;;;5026352;28;20416;-79
2023/07/04 12:48:10;;;;;;;5.90;1.35;;;20.00;99.90;;;;;;5025606;28;20531;-80
2023/07/04 12:50:49;;;;;;;5.88;1.58;;;20.00;99.90;;;;;;5023396;28;20041;-79
2023/07/04 12:53:15;;;;;;;6.43;1.55;;;20.30;99.90;;;;;;5026822;28;20528;-80
2023/07/04 12:55:43;;;;;;;8.10;1.70;;;20.60;99.90;;;;;;5010757;28;20046;-80